createdAt,value
2022-09-27T00:00:38.822Z,96604.66
2022-09-27T00:01:40.697Z,96598.88
2022-09-27T00:02:42.330Z,96602.75
2022-09-27T00:03:47.005Z,96595.75
2022-09-27T00:04:48.658Z,96593.59
2022-09-27T00:05:50.098Z,96591.84
2022-09-27T00:06:51.533Z,96597.25
2022-09-27T00:07:53.076Z,96592.69
2022-09-27T00:08:55.590Z,96589.72
2022-09-27T00:09:57.000Z,96587.09
2022-09-27T00:11:00.372Z,96599.97
2022-09-27T00:12:01.814Z,96588.63
2022-09-27T00:13:03.345Z,96591.41
2022-09-27T00:14:06.580Z,96587.69
2022-09-27T00:15:10.041Z,96590.06
2022-09-27T00:16:11.605Z,96582.91
2022-09-27T00:17:13.120Z,96584.38
2022-09-27T00:18:14.749Z,96581.72
2022-09-27T00:19:20.348Z,96584.84
2022-09-27T00:20:21.884Z,96579.69
2022-09-27T00:21:23.234Z,96578.00
2022-09-27T00:22:25.523Z,96575.03
2022-09-27T00:23:26.926Z,96575.69
2022-09-27T00:24:28.879Z,96570.13
2022-09-27T00:25:30.284Z,96577.31
2022-09-27T00:26:32.005Z,96577.88
2022-09-27T00:27:33.474Z,96575.56
2022-09-27T00:28:35.212Z,96572.28
2022-09-27T00:29:38.104Z,96566.69
2022-09-27T00:30:41.956Z,96566.63
2022-09-27T00:31:43.775Z,96575.03
2022-09-27T00:32:45.424Z,96571.22
2022-09-27T00:33:49.901Z,96562.13
2022-09-27T00:34:51.310Z,96562.66
2022-09-27T00:35:52.774Z,96563.44
2022-09-27T00:36:55.486Z,96563.22
2022-09-27T00:37:56.883Z,96563.63
2022-09-27T00:39:02.291Z,96554.41
2022-09-27T00:40:04.170Z,96556.69
2022-09-27T00:41:05.797Z,96555.84
2022-09-27T00:42:11.735Z,96553.94
2022-09-27T00:43:23.741Z,96551.78
2022-09-27T00:44:25.583Z,96556.44
2022-09-27T00:45:27.108Z,96548.97
2022-09-27T00:46:37.388Z,96545.53
2022-09-27T00:48:01.043Z,96542.81
2022-09-27T00:49:27.547Z,96545.88
2022-09-27T00:50:46.911Z,96539.16
2022-09-27T00:51:52.457Z,96536.78
2022-09-27T00:53:10.226Z,96535.06
2022-09-27T00:54:15.469Z,96529.19
2022-09-27T00:55:20.936Z,96535.09
2022-09-27T00:56:26.854Z,96527.03
2022-09-27T00:57:28.893Z,96528.19
2022-09-27T00:58:35.804Z,96528.09
2022-09-27T00:59:41.551Z,96525.94
2022-09-27T01:00:46.953Z,96528.63
2022-09-27T01:01:49.955Z,96526.56
2022-09-27T01:02:54.480Z,96524.59
2022-09-27T01:04:12.044Z,96523.91
2022-09-27T01:05:16.203Z,96525.06
2022-09-27T01:06:20.641Z,96521.88
2022-09-27T01:07:22.097Z,96520.31
2022-09-27T01:08:24.205Z,96528.59
2022-09-27T01:09:26.327Z,96521.81
2022-09-27T01:10:37.084Z,96518.06
2022-09-27T01:11:47.188Z,96513.94
2022-09-27T01:12:59.926Z,96523.72
2022-09-27T01:14:11.142Z,96512.94
2022-09-27T01:15:41.930Z,96519.75
2022-09-27T01:16:51.464Z,96517.53
2022-09-27T01:18:08.595Z,96514.81
2022-09-27T01:19:34.732Z,96514.53
2022-09-27T01:20:54.920Z,96510.91
2022-09-27T01:22:11.211Z,96506.66
2022-09-27T01:23:39.762Z,96508.66
2022-09-27T01:25:19.449Z,96507.50
2022-09-27T01:26:50.841Z,96503.91
2022-09-27T01:28:16.257Z,96505.72
2022-09-27T01:29:55.283Z,96503.56
2022-09-27T01:31:06.609Z,96499.19
2022-09-27T01:32:49.586Z,96503.31
2022-09-27T01:34:05.257Z,96506.94
2022-09-27T01:35:16.955Z,96505.75
2022-09-27T01:36:27.352Z,96502.97
2022-09-27T01:37:59.266Z,96500.88
2022-09-27T01:39:29.071Z,96496.56
2022-09-27T01:40:40.284Z,96500.94
2022-09-27T01:41:47.210Z,96495.81
2022-09-27T01:42:59.545Z,96500.03
2022-09-27T01:44:11.696Z,96498.78
2022-09-27T01:45:15.754Z,96489.03
2022-09-27T01:46:23.520Z,96489.44
2022-09-27T01:47:32.909Z,96496.22
2022-09-27T01:48:42.541Z,96488.25
2022-09-27T01:50:05.759Z,96490.53
2022-09-27T01:51:09.451Z,96489.63
2022-09-27T01:52:15.719Z,96488.69
2022-09-27T01:53:25.628Z,96488.88
2022-09-27T01:54:40.082Z,96483.19
2022-09-27T01:55:44.278Z,96489.31
2022-09-27T01:56:52.302Z,96487.38
2022-09-27T01:58:01.718Z,96486.38
2022-09-27T01:59:09.389Z,96493.09
2022-09-27T02:00:12.883Z,96487.03
2022-09-27T02:01:16.462Z,96483.31
2022-09-27T02:02:22.092Z,96485.03
2022-09-27T02:03:34.501Z,96480.25
2022-09-27T02:04:39.730Z,96485.81
2022-09-27T02:05:49.885Z,96481.88
2022-09-27T02:06:59.545Z,96475.97
2022-09-27T02:08:04.943Z,96479.25
2022-09-27T02:09:12.547Z,96474.34
2022-09-27T02:10:38.449Z,96476.25
2022-09-27T02:11:45.249Z,96476.72
2022-09-27T02:12:57.502Z,96466.47
2022-09-27T02:14:38.159Z,96472.59
2022-09-27T02:15:56.010Z,96466.59
2022-09-27T02:17:17.420Z,96472.97
2022-09-27T02:18:23.497Z,96471.03
2022-09-27T02:20:08.263Z,96465.63
2022-09-27T02:21:14.817Z,96465.63
2022-09-27T02:22:35.172Z,96463.69
2022-09-27T02:23:44.569Z,96462.50
2022-09-27T02:24:55.454Z,96462.88
2022-09-27T02:26:11.213Z,96464.50
2022-09-27T02:27:18.431Z,96464.78
2022-09-27T02:28:55.289Z,96460.53
2022-09-27T02:30:07.887Z,96462.94
2022-09-27T02:31:10.161Z,96461.28
2022-09-27T02:32:11.695Z,96457.59
2022-09-27T02:33:13.213Z,96461.75
2022-09-27T02:34:29.707Z,96448.66
2022-09-27T02:35:35.304Z,96457.72
2022-09-27T02:36:37.801Z,96451.03
2022-09-27T02:37:39.761Z,96447.25
2022-09-27T02:38:43.385Z,96456.47
2022-09-27T02:39:48.358Z,96457.91
2022-09-27T02:40:49.940Z,96449.63
2022-09-27T02:41:52.065Z,96450.72
2022-09-27T02:42:53.909Z,96445.50
2022-09-27T02:44:08.584Z,96440.00
2022-09-27T02:45:12.827Z,96442.63
2022-09-27T02:46:36.086Z,96439.31
2022-09-27T02:48:04.041Z,96441.16
2022-09-27T02:49:34.629Z,96438.78
2022-09-27T02:50:57.847Z,96440.47
2022-09-27T02:52:28.736Z,96441.38
2022-09-27T02:53:40.975Z,96439.13
2022-09-27T02:54:45.790Z,96438.22
2022-09-27T02:55:59.107Z,96434.50
2022-09-27T02:57:24.064Z,96434.81
2022-09-27T02:58:40.144Z,96431.91
2022-09-27T02:59:56.605Z,96432.19
2022-09-27T03:01:08.957Z,96429.34
2022-09-27T03:02:23.562Z,96431.78
2022-09-27T03:03:37.042Z,96427.66
2022-09-27T03:04:51.487Z,96420.84
2022-09-27T03:06:02.457Z,96425.25
2022-09-27T03:07:04.208Z,96426.63
2022-09-27T03:08:07.516Z,96431.22
2022-09-27T03:09:24.388Z,96436.72
2022-09-27T03:10:28.745Z,96427.22
2022-09-27T03:11:30.418Z,96428.25
2022-09-27T03:12:32.921Z,96427.22
2022-09-27T03:13:49.866Z,96430.22
2022-09-27T03:15:00.479Z,96434.38
2022-09-27T03:16:02.156Z,96435.50
2022-09-27T03:17:04.052Z,96432.72
2022-09-27T03:18:05.752Z,96425.59
2022-09-27T03:19:07.860Z,96422.31
2022-09-27T03:20:09.447Z,96421.81
2022-09-27T03:21:10.898Z,96424.06
2022-09-27T03:22:12.363Z,96425.53
2022-09-27T03:23:13.816Z,96423.00
2022-09-27T03:24:15.632Z,96421.34
2022-09-27T03:25:17.064Z,96429.94
2022-09-27T03:26:18.780Z,96425.47
2022-09-27T03:27:20.241Z,96428.75
2022-09-27T03:28:21.764Z,96433.63
2022-09-27T03:29:23.338Z,96432.72
2022-09-27T03:30:24.865Z,96430.00
2022-09-27T03:31:26.366Z,96425.78
2022-09-27T03:32:28.251Z,96430.13
2022-09-27T03:33:29.710Z,96428.25
2022-09-27T03:34:31.476Z,96427.31
2022-09-27T03:35:32.898Z,96428.94
2022-09-27T03:36:34.442Z,96429.72
2022-09-27T03:37:35.895Z,96424.84
2022-09-27T03:38:38.069Z,96420.25
2022-09-27T03:39:40.982Z,96415.94
2022-09-27T03:40:42.408Z,96415.53
2022-09-27T03:41:43.765Z,96417.34
2022-09-27T03:42:49.630Z,96419.09
2022-09-27T03:43:51.802Z,96416.88
2022-09-27T03:44:53.218Z,96424.38
2022-09-27T03:45:54.799Z,96420.66
2022-09-27T03:46:57.314Z,96418.38
2022-09-27T03:47:58.856Z,96422.91
2022-09-27T03:49:00.806Z,96412.31
2022-09-27T03:50:02.415Z,96418.59
2022-09-27T03:51:04.584Z,96411.75
2022-09-27T03:52:06.090Z,96412.06
2022-09-27T03:53:07.905Z,96410.69
2022-09-27T03:54:10.259Z,96412.50
2022-09-27T03:55:13.158Z,96415.84
2022-09-27T03:56:14.599Z,96411.72
2022-09-27T03:57:16.138Z,96411.66
2022-09-27T03:58:17.611Z,96416.88
2022-09-27T03:59:19.411Z,96409.72
2022-09-27T04:00:21.782Z,96411.94
2022-09-27T04:01:23.320Z,96413.44
2022-09-27T04:02:24.848Z,96408.16
2022-09-27T04:03:27.115Z,96408.22
2022-09-27T04:04:29.626Z,96404.38
2022-09-27T04:05:31.124Z,96408.22
2022-09-27T04:06:33.278Z,96408.59
2022-09-27T04:07:34.767Z,96406.94
2022-09-27T04:08:36.913Z,96404.59
2022-09-27T04:09:43.826Z,96408.97
2022-09-27T04:10:46.058Z,96409.81
2022-09-27T04:11:47.466Z,96406.56
2022-09-27T04:12:48.903Z,96404.66
2022-09-27T04:13:50.734Z,96399.00
2022-09-27T04:14:52.238Z,96400.94
2022-09-27T04:15:54.335Z,96406.94
2022-09-27T04:16:55.959Z,96405.75
2022-09-27T04:17:57.451Z,96403.75
2022-09-27T04:18:59.217Z,96409.72
2022-09-27T04:20:02.550Z,96410.78
2022-09-27T04:21:04.120Z,96405.69
2022-09-27T04:22:05.678Z,96408.66
2022-09-27T04:23:07.694Z,96413.91
2022-09-27T04:24:09.601Z,96400.38
2022-09-27T04:25:12.143Z,96407.34
2022-09-27T04:26:13.766Z,96406.78
2022-09-27T04:27:15.980Z,96408.78
2022-09-27T04:28:17.655Z,96409.94
2022-09-27T04:29:19.256Z,96414.47
2022-09-27T04:30:22.072Z,96408.09
2022-09-27T04:31:23.621Z,96405.28
2022-09-27T04:32:25.159Z,96411.47
2022-09-27T04:33:26.612Z,96414.47
2022-09-27T04:34:46.990Z,96415.97
2022-09-27T04:36:06.754Z,96435.59
2022-09-27T04:37:08.193Z,96448.47
2022-09-27T04:38:09.594Z,96451.22
2022-09-27T04:39:11.114Z,96446.69
2022-09-27T04:40:13.012Z,96434.69
2022-09-27T04:41:15.325Z,96433.84
2022-09-27T04:42:17.712Z,96440.72
2022-09-27T04:43:19.189Z,96435.84
2022-09-27T04:44:20.939Z,96435.44
2022-09-27T04:45:22.581Z,96440.16
2022-09-27T04:46:24.970Z,96432.19
2022-09-27T04:47:26.556Z,96434.75
2022-09-27T04:48:28.079Z,96435.13
2022-09-27T04:49:29.881Z,96440.44
2022-09-27T04:50:34.569Z,96440.78
2022-09-27T04:51:37.983Z,96440.72
2022-09-27T04:52:40.385Z,96443.53
2022-09-27T04:53:42.103Z,96443.72
2022-09-27T04:54:43.637Z,96445.16
2022-09-27T04:55:50.041Z,96448.91
2022-09-27T04:56:51.507Z,96438.72
2022-09-27T04:57:53.384Z,96448.38
2022-09-27T04:58:54.868Z,96445.28
2022-09-27T04:59:56.617Z,96446.50
2022-09-27T05:00:58.128Z,96451.28
2022-09-27T05:02:00.625Z,96448.03
2022-09-27T05:03:02.178Z,96458.91
2022-09-27T05:04:03.668Z,96448.25
2022-09-27T05:05:07.059Z,96450.44
2022-09-27T05:06:08.530Z,96456.72
2022-09-27T05:07:10.029Z,96454.44
2022-09-27T05:08:11.752Z,96456.09
2022-09-27T05:09:13.175Z,96457.28
2022-09-27T05:10:16.961Z,96462.47
2022-09-27T05:11:18.527Z,96451.03
2022-09-27T05:12:20.479Z,96455.53
2022-09-27T05:13:22.418Z,96462.25
2022-09-27T05:15:30.693Z,96470.56
2022-09-27T05:16:34.262Z,96462.63
2022-09-27T05:17:35.729Z,96461.22
2022-09-27T05:18:37.176Z,96461.75
2022-09-27T05:19:39.632Z,96462.34
2022-09-27T05:20:41.791Z,96469.81
2022-09-27T05:21:43.800Z,96464.84
2022-09-27T05:22:45.956Z,96467.69
2022-09-27T05:23:48.115Z,96468.78
2022-09-27T05:24:49.696Z,96474.69
2022-09-27T05:25:52.213Z,96479.19
2022-09-27T05:26:54.427Z,96470.41
2022-09-27T05:27:56.082Z,96467.00
2022-09-27T05:28:57.484Z,96473.78
2022-09-27T05:30:02.080Z,96476.09
2022-09-27T05:31:04.074Z,96469.34
2022-09-27T05:32:05.595Z,96469.38
2022-09-27T05:33:07.036Z,96474.22
2022-09-27T05:34:09.155Z,96480.22
2022-09-27T05:35:10.655Z,96474.66
2022-09-27T05:36:12.718Z,96476.81
2022-09-27T05:37:14.430Z,96471.56
2022-09-27T05:38:16.006Z,96475.28
2022-09-27T05:39:17.535Z,96475.28
2022-09-27T05:40:39.795Z,96480.56
2022-09-27T05:41:41.291Z,96477.09
2022-09-27T05:42:42.872Z,96478.63
2022-09-27T05:43:44.884Z,96479.97
2022-09-27T05:44:48.745Z,96482.28
2022-09-27T05:45:52.853Z,96484.84
2022-09-27T05:46:54.330Z,96478.56
2022-09-27T05:47:57.853Z,96487.59
2022-09-27T05:48:59.471Z,96480.78
2022-09-27T05:50:01.340Z,96484.50
2022-09-27T05:51:02.818Z,96483.44
2022-09-27T05:52:04.230Z,96494.56
2022-09-27T05:53:06.000Z,96485.03
2022-09-27T05:54:07.789Z,96494.06
2022-09-27T05:55:09.270Z,96488.34
2022-09-27T05:56:10.771Z,96494.13
2022-09-27T05:57:12.181Z,96491.91
2022-09-27T05:58:16.230Z,96497.13
2022-09-27T05:59:17.963Z,96490.25
2022-09-27T06:00:19.610Z,96492.50
2022-09-27T06:01:21.118Z,96492.13
2022-09-27T06:02:22.733Z,96491.31
2022-09-27T06:03:24.289Z,96495.41
2022-09-27T06:04:25.797Z,96492.31
2022-09-27T06:05:29.672Z,96499.03
2022-09-27T06:06:34.014Z,96499.41
2022-09-27T06:07:35.423Z,96491.50
2022-09-27T06:08:38.911Z,96496.09
2022-09-27T06:09:40.729Z,96497.84
2022-09-27T06:10:42.238Z,96498.09
2022-09-27T06:11:45.443Z,96500.03
2022-09-27T06:12:47.062Z,96504.16
2022-09-27T06:13:48.778Z,96512.03
2022-09-27T06:14:50.218Z,96499.44
2022-09-27T06:15:52.992Z,96498.94
2022-09-27T06:16:55.150Z,96504.16
2022-09-27T06:17:56.824Z,96497.94
2022-09-27T06:18:58.592Z,96504.34
2022-09-27T06:20:00.487Z,96502.78
2022-09-27T06:21:03.592Z,96508.31
2022-09-27T06:22:05.014Z,96509.72
2022-09-27T06:23:15.430Z,96496.53
2022-09-27T06:24:17.328Z,96509.84
2022-09-27T06:25:18.856Z,96512.09
2022-09-27T06:26:22.045Z,96512.69
2022-09-27T06:27:23.483Z,96508.47
2022-09-27T06:28:26.557Z,96514.00
2022-09-27T06:29:29.226Z,96509.66
2022-09-27T06:30:31.320Z,96512.59
2022-09-27T06:31:32.827Z,96514.75
2022-09-27T06:32:34.276Z,96518.19
2022-09-27T06:33:36.077Z,96519.84
2022-09-27T06:34:37.555Z,96513.28
2022-09-27T06:35:40.218Z,96515.03
2022-09-27T06:36:41.751Z,96520.72
2022-09-27T06:37:43.205Z,96521.16
2022-09-27T06:38:47.115Z,96521.59
2022-09-27T06:39:49.255Z,96522.69
2022-09-27T06:40:50.878Z,96518.28
2022-09-27T06:41:59.746Z,96531.03
2022-09-27T06:43:09.301Z,96520.88
2022-09-27T06:44:11.413Z,96530.13
2022-09-27T06:45:12.872Z,96529.38
2022-09-27T06:46:14.946Z,96530.88
2022-09-27T06:47:17.508Z,96535.75
2022-09-27T06:48:19.008Z,96531.47
2022-09-27T06:49:22.195Z,96535.38
2022-09-27T06:50:23.783Z,96529.94
2022-09-27T06:51:25.299Z,96535.09
2022-09-27T06:52:26.710Z,96540.81
2022-09-27T06:53:29.960Z,96542.66
2022-09-27T06:54:31.494Z,96544.94
2022-09-27T06:55:33.200Z,96552.63
2022-09-27T06:56:34.623Z,96547.44
2022-09-27T06:58:14.511Z,96551.22
2022-09-27T06:59:34.986Z,96561.56
2022-09-27T07:00:36.506Z,96561.50
2022-09-27T07:01:38.030Z,96566.41
2022-09-27T07:02:40.129Z,96574.25
2022-09-27T07:03:44.863Z,96572.00
2022-09-27T07:04:46.351Z,96572.00
2022-09-27T07:06:18.608Z,96570.00
2022-09-27T07:07:20.048Z,96580.53
2022-09-27T07:08:21.629Z,96580.38
2022-09-27T07:09:23.262Z,96587.63
2022-09-27T07:10:30.257Z,96587.69
2022-09-27T07:11:33.109Z,96586.97
2022-09-27T07:12:36.608Z,96591.19
2022-09-27T07:13:42.874Z,96585.53
2022-09-27T07:14:44.302Z,96594.88
2022-09-27T07:15:45.745Z,96589.63
2022-09-27T07:16:47.573Z,96601.84
2022-09-27T07:17:57.972Z,96593.81
2022-09-27T07:18:59.403Z,96597.97
2022-09-27T07:20:01.038Z,96602.81
2022-09-27T07:21:02.570Z,96607.00
2022-09-27T07:22:04.020Z,96605.50
2022-09-27T07:23:07.294Z,96604.16
2022-09-27T07:24:09.152Z,96602.19
2022-09-27T07:25:11.470Z,96612.53
2022-09-27T07:26:12.952Z,96613.63
2022-09-27T07:27:15.575Z,96621.97
2022-09-27T07:28:22.061Z,96618.94
2022-09-27T07:29:23.820Z,96620.22
2022-09-27T07:30:25.317Z,96619.03
2022-09-27T07:31:26.964Z,96628.72
2022-09-27T07:32:28.552Z,96626.44
2022-09-27T07:33:32.007Z,96622.22
2022-09-27T07:34:34.507Z,96618.00
2022-09-27T07:35:39.937Z,96622.66
2022-09-27T07:36:41.538Z,96623.00
2022-09-27T07:37:43.187Z,96626.75
2022-09-27T07:38:44.642Z,96623.72
2022-09-27T07:39:46.068Z,96627.41
2022-09-27T07:40:47.614Z,96621.34
2022-09-27T07:41:49.052Z,96630.84
2022-09-27T07:42:58.484Z,96626.97
2022-09-27T07:43:59.964Z,96630.34
2022-09-27T07:45:01.439Z,96630.56
2022-09-27T07:46:03.027Z,96634.19
2022-09-27T07:47:07.660Z,96635.28
2022-09-27T07:48:13.200Z,96638.75
2022-09-27T07:49:15.040Z,96635.44
2022-09-27T07:50:16.759Z,96643.81
2022-09-27T07:51:18.168Z,96645.91
2022-09-27T07:52:20.365Z,96644.63
2022-09-27T07:53:21.848Z,96651.56
2022-09-27T07:54:23.933Z,96648.91
2022-09-27T07:55:25.579Z,96645.88
2022-09-27T07:56:27.896Z,96645.53
2022-09-27T07:57:30.023Z,96652.94
2022-09-27T07:58:32.433Z,96654.16
2022-09-27T07:59:33.989Z,96646.25
2022-09-27T08:00:37.155Z,96651.81
2022-09-27T08:01:39.244Z,96653.16
2022-09-27T08:02:42.211Z,96658.31
2022-09-27T08:03:44.639Z,96653.16
2022-09-27T08:04:48.974Z,96657.47
2022-09-27T08:05:50.389Z,96656.09
2022-09-27T08:06:51.867Z,96654.41
2022-09-27T08:07:57.007Z,96659.22
2022-09-27T08:09:00.089Z,96663.88
2022-09-27T08:10:01.653Z,96676.50
2022-09-27T08:11:15.345Z,96670.47
2022-09-27T08:12:17.241Z,96673.72
2022-09-27T08:13:20.705Z,96673.47
2022-09-27T08:14:23.339Z,96677.44
2022-09-27T08:15:24.884Z,96677.75
2022-09-27T08:16:26.318Z,96680.00
2022-09-27T08:17:29.004Z,96682.28
2022-09-27T08:18:30.475Z,96679.47
2022-09-27T08:19:31.909Z,96683.00
2022-09-27T08:20:33.455Z,96686.56
2022-09-27T08:21:34.944Z,96689.13
2022-09-27T08:22:41.605Z,96688.50
2022-09-27T08:23:43.121Z,96689.78
2022-09-27T08:24:44.527Z,96688.38
2022-09-27T08:25:52.757Z,96692.97
2022-09-27T08:26:54.344Z,96697.06
2022-09-27T08:28:01.638Z,96696.88
2022-09-27T08:29:03.456Z,96685.91
2022-09-27T08:30:05.408Z,96690.09
2022-09-27T08:31:06.863Z,96696.59
2022-09-27T08:32:12.128Z,96684.88
2022-09-27T08:33:13.560Z,96684.75
2022-09-27T08:34:15.071Z,96685.78
2022-09-27T08:35:16.548Z,96695.94
2022-09-27T08:36:17.984Z,96687.41
2022-09-27T08:37:19.538Z,96700.31
2022-09-27T08:38:21.026Z,96700.66
2022-09-27T08:39:22.771Z,96705.44
2022-09-27T08:40:31.554Z,96708.78
2022-09-27T08:41:57.508Z,96709.84
2022-09-27T08:43:33.456Z,96703.59
2022-09-27T08:45:19.734Z,96706.31
2022-09-27T08:46:27.200Z,96705.56
2022-09-27T08:47:43.728Z,96710.38
2022-09-27T08:48:50.732Z,96713.13
2022-09-27T08:50:06.678Z,96714.59
2022-09-27T08:51:13.651Z,96713.31
2022-09-27T08:52:23.533Z,96724.34
2022-09-27T08:53:33.915Z,96725.75
2022-09-27T08:54:36.505Z,96721.94
2022-09-27T08:55:48.212Z,96723.03
2022-09-27T08:56:49.655Z,96730.13
2022-09-27T08:57:56.731Z,96722.59
2022-09-27T08:59:10.388Z,96722.69
2022-09-27T09:00:12.414Z,96723.44
2022-09-27T09:01:16.709Z,96724.47
2022-09-27T09:02:21.774Z,96733.97
2022-09-27T09:03:33.819Z,96730.78
2022-09-27T09:04:39.680Z,96732.94
2022-09-27T09:05:41.115Z,96732.25
2022-09-27T09:06:55.871Z,96732.63
2022-09-27T09:08:42.404Z,96725.75
2022-09-27T09:09:59.545Z,96728.84
2022-09-27T09:11:46.276Z,96726.53
2022-09-27T09:12:56.524Z,96725.38
2022-09-27T09:14:32.305Z,96728.38
2022-09-27T09:15:55.318Z,96729.75
2022-09-27T09:17:03.978Z,96728.91
2022-09-27T09:18:16.832Z,96723.91
2022-09-27T09:19:39.319Z,96729.34
2022-09-27T09:20:56.589Z,96724.66
2022-09-27T09:22:12.128Z,96732.13
2022-09-27T09:23:22.600Z,96742.41
2022-09-27T09:24:52.139Z,96726.09
2022-09-27T09:26:03.168Z,96730.69
2022-09-27T09:27:19.694Z,96725.66
2022-09-27T09:28:29.099Z,96731.25
2022-09-27T09:29:44.900Z,96723.34
2022-09-27T09:31:17.757Z,96723.22
2022-09-27T09:32:34.516Z,96731.38
2022-09-27T09:33:41.713Z,96729.84
2022-09-27T09:34:59.949Z,96722.63
2022-09-27T09:36:09.477Z,96722.69
2022-09-27T09:37:14.641Z,96740.72
2022-09-27T09:38:21.350Z,96732.38
2022-09-27T09:39:30.143Z,96734.31
2022-09-27T09:40:44.284Z,96736.31
2022-09-27T09:42:07.845Z,96735.41
2022-09-27T09:43:26.230Z,96729.91
2022-09-27T09:44:45.150Z,96736.88
2022-09-27T09:45:51.714Z,96742.38
2022-09-27T09:47:00.034Z,96731.09
2022-09-27T09:48:19.216Z,96728.59
2022-09-27T09:49:35.884Z,96730.56
2022-09-27T09:50:45.107Z,96729.72
2022-09-27T09:51:51.393Z,96729.63
2022-09-27T09:52:59.558Z,96739.47
2022-09-27T09:54:07.515Z,96729.44
2022-09-27T09:55:22.982Z,96725.28
2022-09-27T09:56:28.218Z,96725.72
2022-09-27T09:57:42.402Z,96726.16
2022-09-27T09:58:51.712Z,96725.28
2022-09-27T09:59:59.374Z,96725.56
2022-09-27T10:01:14.401Z,96727.59
2022-09-27T10:02:26.722Z,96738.91
2022-09-27T10:03:28.305Z,96729.56
2022-09-27T10:04:29.802Z,96723.41
2022-09-27T10:05:31.889Z,96728.91
2022-09-27T10:06:33.442Z,96729.56
2022-09-27T10:07:38.799Z,96736.63
2022-09-27T10:08:41.047Z,96730.03
2022-09-27T10:09:42.514Z,96724.59
2022-09-27T10:10:43.983Z,96733.56
2022-09-27T10:11:46.963Z,96734.78
2022-09-27T10:12:49.452Z,96731.44
2022-09-27T10:13:51.435Z,96736.66
2022-09-27T10:14:55.347Z,96735.06
2022-09-27T10:16:04.426Z,96729.72
2022-09-27T10:17:10.778Z,96729.25
2022-09-27T10:18:18.972Z,96735.38
2022-09-27T10:19:39.704Z,96732.69
2022-09-27T10:20:52.712Z,96738.97
2022-09-27T10:21:58.249Z,96735.75
2022-09-27T10:23:16.560Z,96730.75
2022-09-27T10:24:19.615Z,96745.38
2022-09-27T10:25:21.654Z,96743.59
2022-09-27T10:26:24.168Z,96739.78
2022-09-27T10:27:26.696Z,96749.03
2022-09-27T10:28:46.141Z,96750.28
2022-09-27T10:29:57.069Z,96747.69
2022-09-27T10:31:13.471Z,96759.31
2022-09-27T10:32:31.329Z,96754.78
2022-09-27T10:33:34.486Z,96746.41
2022-09-27T10:34:41.060Z,96752.38
2022-09-27T10:35:45.214Z,96761.75
2022-09-27T10:37:01.167Z,96769.59
2022-09-27T10:38:22.823Z,96759.22
2022-09-27T10:39:24.340Z,96761.34
2022-09-27T10:40:31.700Z,96767.91
2022-09-27T10:41:36.717Z,96764.50
2022-09-27T10:42:38.957Z,96776.16
2022-09-27T10:43:40.852Z,96769.03
2022-09-27T10:44:42.295Z,96762.47
2022-09-27T10:45:44.076Z,96774.53
2022-09-27T10:46:53.297Z,96775.59
2022-09-27T10:47:55.443Z,96772.41
2022-09-27T10:49:13.499Z,96770.19
2022-09-27T10:50:48.883Z,96782.19
2022-09-27T10:51:54.763Z,96779.94
2022-09-27T10:53:06.310Z,96774.91
2022-09-27T10:54:24.394Z,96780.81
2022-09-27T10:55:27.657Z,96784.41
2022-09-27T10:56:32.028Z,96777.88
2022-09-27T10:57:33.864Z,96774.81
2022-09-27T10:58:38.312Z,96773.81
2022-09-27T10:59:46.186Z,96777.78
2022-09-27T11:01:04.136Z,96780.22
2022-09-27T11:02:16.837Z,96777.63
2022-09-27T11:03:19.295Z,96768.06
2022-09-27T11:04:30.515Z,96775.97
2022-09-27T11:05:38.703Z,96768.44
2022-09-27T11:06:40.865Z,96766.06
2022-09-27T11:07:50.907Z,96769.09
2022-09-27T11:08:53.527Z,96768.63
2022-09-27T11:10:02.944Z,96769.06
2022-09-27T11:11:26.145Z,96770.53
2022-09-27T11:12:28.050Z,96773.41
2022-09-27T11:13:32.782Z,96758.84
2022-09-27T11:14:34.226Z,96764.72
2022-09-27T11:16:00.025Z,96759.47
2022-09-27T11:17:40.699Z,96768.25
2022-09-27T11:19:19.550Z,96759.34
2022-09-27T11:20:39.733Z,96771.13
2022-09-27T11:21:47.102Z,96761.81
2022-09-27T11:23:16.334Z,96758.94
2022-09-27T11:24:54.862Z,96771.34
2022-09-27T11:26:25.547Z,96770.41
2022-09-27T11:27:35.896Z,96769.41
2022-09-27T11:29:03.411Z,96774.97
2022-09-27T11:30:13.479Z,96774.81
2022-09-27T11:31:48.652Z,96778.88
2022-09-27T11:33:09.094Z,96788.91
2022-09-27T11:34:35.731Z,96783.88
2022-09-27T11:35:42.158Z,96783.22
2022-09-27T11:37:08.377Z,96782.50
2022-09-27T11:38:51.124Z,96781.81
2022-09-27T11:39:58.323Z,96790.75
2022-09-27T11:41:24.228Z,96780.31
2022-09-27T11:42:44.653Z,96774.22
2022-09-27T11:44:04.421Z,96767.03
2022-09-27T11:47:01.460Z,96779.28
2022-09-27T11:48:11.966Z,96785.66
2022-09-27T11:49:32.430Z,96777.84
2022-09-27T11:50:44.059Z,96766.53
2022-09-27T11:52:10.740Z,96768.59
2022-09-27T11:53:27.486Z,96772.97
2022-09-27T11:54:41.240Z,96775.47
2022-09-27T11:55:52.522Z,96766.94
2022-09-27T11:57:13.078Z,96769.34
2022-09-27T11:58:34.334Z,96762.69
2022-09-27T12:00:11.025Z,96762.81
2022-09-27T12:01:33.758Z,96756.34
2022-09-27T12:03:23.007Z,96764.22
2022-09-27T12:04:51.783Z,96765.63
2022-09-27T12:06:14.975Z,96769.38
2022-09-27T12:07:27.781Z,96760.81
2022-09-27T12:08:36.836Z,96763.53
2022-09-27T12:09:41.293Z,96760.72
2022-09-27T12:10:48.924Z,96767.16
2022-09-27T12:11:55.930Z,96756.34
2022-09-27T12:12:59.219Z,96759.00
2022-09-27T12:14:17.075Z,96759.63
2022-09-27T12:15:22.799Z,96757.00
2022-09-27T12:16:26.381Z,96761.53
2022-09-27T12:17:31.753Z,96767.16
2022-09-27T12:18:40.880Z,96768.88
2022-09-27T12:19:48.523Z,96756.75
2022-09-27T12:20:50.056Z,96770.50
2022-09-27T12:21:52.024Z,96769.81
2022-09-27T12:23:18.096Z,96766.00
2022-09-27T12:24:22.494Z,96767.44
2022-09-27T12:25:30.402Z,96769.56
2022-09-27T12:26:38.730Z,96766.50
2022-09-27T12:27:48.258Z,96765.91
2022-09-27T12:28:55.256Z,96772.00
2022-09-27T12:30:00.103Z,96781.50
2022-09-27T12:31:28.058Z,96764.25
2022-09-27T12:32:46.605Z,96765.56
2022-09-27T12:34:02.413Z,96760.41
2022-09-27T12:35:14.079Z,96764.03
2022-09-27T12:36:20.452Z,96760.66
2022-09-27T12:37:33.028Z,96759.91
2022-09-27T12:38:56.167Z,96762.78
2022-09-27T12:40:07.702Z,96764.00
2022-09-27T12:41:14.470Z,96766.91
2022-09-27T12:42:32.130Z,96753.25
2022-09-27T12:43:36.515Z,96759.69
2022-09-27T12:44:41.325Z,96756.56
2022-09-27T12:45:45.460Z,96746.53
2022-09-27T12:46:55.616Z,96750.81
2022-09-27T12:48:17.283Z,96749.47
2022-09-27T12:49:48.734Z,96754.22
2022-09-27T12:51:07.997Z,96759.47
2022-09-27T12:52:14.689Z,96761.31
2022-09-27T12:53:23.318Z,96758.91
2022-09-27T12:54:49.210Z,96769.91
2022-09-27T12:56:10.683Z,96767.19
2022-09-27T12:57:42.081Z,96775.38
2022-09-27T12:59:42.244Z,96775.66
2022-09-27T13:00:58.079Z,96778.47
2022-09-27T13:02:16.364Z,96777.44
2022-09-27T13:03:40.952Z,96777.47
2022-09-27T13:05:13.864Z,96775.28
2022-09-27T13:06:27.455Z,96782.88
2022-09-27T13:07:51.618Z,96768.50
2022-09-27T13:09:31.160Z,96766.66
2022-09-27T13:10:52.900Z,96772.66
2022-09-27T13:12:01.484Z,96766.25
2022-09-27T13:13:05.875Z,96767.38
2022-09-27T13:14:19.621Z,96774.75
2022-09-27T13:15:32.121Z,96763.81
2022-09-27T13:16:44.350Z,96763.75
2022-09-27T13:17:50.854Z,96761.72
2022-09-27T13:19:01.298Z,96767.16
2022-09-27T13:20:32.059Z,96754.81
2022-09-27T13:21:51.618Z,96767.16
2022-09-27T13:22:57.663Z,96768.66